CheckWX is a tool to help pilots better visualize weather data.  It is not intended as a substitute for an official pre-flight weather briefing.

04:24:12 UTC

ESGG TAF
Gothenburg-Landvetter Airport
Gothenburg, Sweden
TAF ESGG 232330Z 2400/2424 10010KT CAVOK BECMG 2407/2409 14015G25KT BECMG 2418/2420 09006KT

Apr-24@
00:00 UTC

Apr-24 @ 00:00 UTC

Apr-24@
07:00 UTC

Apr-24 @ 07:00 UTC

TAF ESGG 232330Z 2400/2424 10010KT CAVOK
Wind
  • 100° at 10 KTS
Conditions
No significant weather
Cloud Levels
  • No significant clouds

Apr-24@
07:00 UTC

Apr-24 @ 07:00 UTC

Apr-24@
18:00 UTC

Apr-24 @ 18:00 UTC

BECMG 2407/2409 14015G25KT

Becoming

Becoming Conditions expected by Wed, Apr 24, 2019 @ 09:00 UTC

Wind
  • 140° at 15 KTS
  • {Gusting to 25 KTS
Conditions
No significant weather
Cloud Levels
  • No significant clouds

Apr-24@
18:00 UTC

Apr-24 @ 18:00 UTC

Apr-25@
00:00 UTC

Apr-25 @ 00:00 UTC

BECMG 2418/2420 09006KT

Becoming

Becoming Conditions expected by Wed, Apr 24, 2019 @ 20:00 UTC

Wind
  • 090° at 6 KTS
Conditions
No significant weather
Cloud Levels
  • No significant clouds